createdAt,value
2016-07-24T00:00:46.345Z,1011.22
2016-07-24T00:01:46.334Z,1011.22
2016-07-24T00:02:46.331Z,1011.25
2016-07-24T00:03:46.315Z,1011.2
2016-07-24T00:04:46.308Z,1011.23
2016-07-24T00:05:46.300Z,1011.22
2016-07-24T00:06:46.289Z,1011.23
2016-07-24T00:07:46.283Z,1011.22
2016-07-24T00:08:46.273Z,1011.29
2016-07-24T00:09:46.266Z,1011.28
2016-07-24T00:10:46.256Z,1011.29
2016-07-24T00:11:46.247Z,1011.28
2016-07-24T00:12:46.235Z,1011.31
2016-07-24T00:13:46.225Z,1011.31
2016-07-24T00:14:46.224Z,1011.28
2016-07-24T00:15:46.204Z,1011.31
2016-07-24T00:16:46.201Z,1011.31
2016-07-24T00:17:46.189Z,1011.27
2016-07-24T00:18:46.183Z,1011.3
2016-07-24T00:19:46.171Z,1011.29
2016-07-24T00:20:46.177Z,1011.3
2016-07-24T00:21:46.154Z,1011.31
2016-07-24T00:22:46.146Z,1011.3
2016-07-24T00:23:46.137Z,1011.35
2016-07-24T00:24:46.127Z,1011.35
2016-07-24T00:25:46.119Z,1011.31
2016-07-24T00:26:46.108Z,1011.36
2016-07-24T00:27:46.098Z,1011.3
2016-07-24T00:28:46.089Z,1011.35
2016-07-24T00:29:46.081Z,1011.35
2016-07-24T00:30:46.072Z,1011.34
2016-07-24T00:31:46.062Z,1011.33
2016-07-24T00:32:46.053Z,1011.31
2016-07-24T00:33:46.044Z,1011.29
2016-07-24T00:34:46.034Z,1011.33
2016-07-24T00:35:46.025Z,1011.32
2016-07-24T00:36:46.030Z,1011.31
2016-07-24T00:37:46.008Z,1011.28
2016-07-24T00:38:45.998Z,1011.26
2016-07-24T00:39:45.988Z,1011.29
2016-07-24T00:40:45.980Z,1011.26
2016-07-24T00:41:45.968Z,1011.23
2016-07-24T00:42:45.960Z,1011.25
2016-07-24T00:43:45.960Z,1011.25
2016-07-24T00:44:45.943Z,1011.26
2016-07-24T00:45:45.934Z,1011.28
2016-07-24T00:46:45.925Z,1011.26
2016-07-24T00:47:45.915Z,1011.22
2016-07-24T00:48:45.905Z,1011.24
2016-07-24T00:49:45.895Z,1011.22
2016-07-24T00:50:45.893Z,1011.24
2016-07-24T00:51:45.878Z,1011.22
2016-07-24T00:52:45.867Z,1011.2
2016-07-24T00:53:45.859Z,1011.21
2016-07-24T00:54:45.850Z,1011.22
2016-07-24T00:55:45.841Z,1011.23
2016-07-24T00:56:45.831Z,1011.22
2016-07-24T00:57:45.822Z,1011.2
2016-07-24T00:58:45.813Z,1011.21
2016-07-24T00:59:45.804Z,1011.2
2016-07-24T01:00:45.794Z,1011.18
2016-07-24T01:01:45.785Z,1011.2
2016-07-24T01:02:45.776Z,1011.18
2016-07-24T01:03:45.768Z,1011.22
2016-07-24T01:04:45.755Z,1011.23
2016-07-24T01:05:45.750Z,1011.23
2016-07-24T01:06:45.740Z,1011.27
2016-07-24T01:07:45.730Z,1011.3
2016-07-24T01:08:45.718Z,1011.31
2016-07-24T01:09:45.709Z,1011.29
2016-07-24T01:10:45.701Z,1011.28
2016-07-24T01:11:45.691Z,1011.34
2016-07-24T01:12:45.682Z,1011.33
2016-07-24T01:13:45.673Z,1011.35
2016-07-24T01:14:45.665Z,1011.31
2016-07-24T01:15:45.656Z,1011.33
2016-07-24T01:16:45.646Z,1011.32
2016-07-24T01:17:45.647Z,1011.33
2016-07-24T01:18:45.625Z,1011.33
2016-07-24T01:19:45.621Z,1011.3
2016-07-24T01:20:45.607Z,1011.29
2016-07-24T01:21:45.597Z,1011.28
2016-07-24T01:22:45.609Z,1011.33
2016-07-24T01:23:45.580Z,1011.33
2016-07-24T01:24:45.571Z,1011.34
2016-07-24T01:25:45.571Z,1011.31
2016-07-24T01:26:45.555Z,1011.32
2016-07-24T01:27:45.542Z,1011.31
2016-07-24T01:28:45.535Z,1011.3
2016-07-24T01:29:45.543Z,1011.29
2016-07-24T01:30:45.514Z,1011.26
2016-07-24T01:31:45.516Z,1011.27
2016-07-24T01:32:45.493Z,1011.26
2016-07-24T01:33:45.485Z,1011.29
2016-07-24T01:34:45.476Z,1011.24
2016-07-24T01:35:45.466Z,1011.25
2016-07-24T01:36:45.465Z,1011.24
2016-07-24T01:37:45.446Z,1011.23
2016-07-24T01:38:45.438Z,1011.23
2016-07-24T01:39:45.428Z,1011.18
2016-07-24T01:40:45.421Z,1011.19
2016-07-24T01:41:45.409Z,1011.16
2016-07-24T01:42:45.415Z,1011.17
2016-07-24T01:43:45.598Z,1011.13
2016-07-24T01:44:45.383Z,1011.14
2016-07-24T01:45:45.376Z,1011.14
2016-07-24T01:46:45.364Z,1011.15
2016-07-24T01:47:45.354Z,1011.13
2016-07-24T01:48:45.345Z,1011.15
2016-07-24T01:49:45.336Z,1011.13
2016-07-24T01:50:45.330Z,1011.19
2016-07-24T01:51:45.316Z,1011.15
2016-07-24T01:52:45.307Z,1011.14
2016-07-24T01:53:45.308Z,1011.16
2016-07-24T01:54:45.287Z,1011.13
2016-07-24T01:55:45.280Z,1011.15
2016-07-24T01:56:45.269Z,1011.23
2016-07-24T01:57:45.260Z,1011.19
2016-07-24T01:58:45.254Z,1011.19
2016-07-24T01:59:45.241Z,1011.24
2016-07-24T02:00:45.231Z,1011.22
2016-07-24T02:01:45.424Z,1011.21
2016-07-24T02:02:45.213Z,1011.21
2016-07-24T02:03:45.205Z,1011.2
2016-07-24T02:04:45.197Z,1011.23
2016-07-24T02:05:45.183Z,1011.22
2016-07-24T02:06:45.176Z,1011.22
2016-07-24T02:07:45.165Z,1011.2
2016-07-24T02:08:45.156Z,1011.25
2016-07-24T02:09:45.145Z,1011.18
2016-07-24T02:10:45.138Z,1011.16
2016-07-24T02:11:45.127Z,1011.1
2016-07-24T02:12:45.119Z,1011.12
2016-07-24T02:13:45.107Z,1011.09
2016-07-24T02:14:45.100Z,1011.08
2016-07-24T02:15:45.091Z,1011.06
2016-07-24T02:16:45.083Z,1011.09
2016-07-24T02:17:45.070Z,1011.1
2016-07-24T02:18:45.063Z,1011.13
2016-07-24T02:19:45.053Z,1011.11
2016-07-24T02:20:45.043Z,1011.12
2016-07-24T02:21:45.034Z,1011.1
2016-07-24T02:22:45.025Z,1011.1
2016-07-24T02:23:45.015Z,1011.11
2016-07-24T02:24:45.005Z,1011.09
2016-07-24T02:25:44.997Z,1011.09
2016-07-24T02:26:44.989Z,1011.08
2016-07-24T02:27:44.976Z,1011.07
2016-07-24T02:28:44.968Z,1011.07
2016-07-24T02:29:44.957Z,1011.05
2016-07-24T02:30:44.949Z,1011.07
2016-07-24T02:31:44.941Z,1011.08
2016-07-24T02:32:44.929Z,1011.11
2016-07-24T02:33:44.921Z,1011.13
2016-07-24T02:34:44.911Z,1011.09
2016-07-24T02:35:44.902Z,1011.1
2016-07-24T02:36:44.895Z,1011.07
2016-07-24T02:37:44.884Z,1011.15
2016-07-24T02:38:44.874Z,1011.11
2016-07-24T02:39:44.865Z,1011.11
2016-07-24T02:40:44.856Z,1011.11
2016-07-24T02:41:44.846Z,1011.08
2016-07-24T02:42:45.038Z,1011.09
2016-07-24T02:43:44.826Z,1011.09
2016-07-24T02:44:44.815Z,1011.09
2016-07-24T02:45:44.808Z,1011.09
2016-07-24T02:46:44.798Z,1011.1
2016-07-24T02:47:44.787Z,1011.05
2016-07-24T02:48:44.779Z,1011.04
2016-07-24T02:49:44.767Z,1011.06
2016-07-24T02:50:44.761Z,1011.02
2016-07-24T02:51:44.752Z,1011.01
2016-07-24T02:52:44.747Z,1011
2016-07-24T02:53:44.735Z,1011.02
2016-07-24T02:54:44.721Z,1010.99
2016-07-24T02:55:44.722Z,1010.98
2016-07-24T02:56:44.707Z,1010.96
2016-07-24T02:57:44.696Z,1010.95
2016-07-24T02:58:44.684Z,1010.95
2016-07-24T02:59:44.674Z,1010.96
2016-07-24T03:00:44.664Z,1010.96
2016-07-24T03:01:44.654Z,1010.96
2016-07-24T03:02:44.652Z,1010.93
2016-07-24T03:03:44.635Z,1010.95
2016-07-24T03:04:44.626Z,1010.96
2016-07-24T03:05:44.617Z,1010.98
2016-07-24T03:06:44.607Z,1010.94
2016-07-24T03:07:44.596Z,1010.95
2016-07-24T03:08:44.587Z,1010.95
2016-07-24T03:09:44.581Z,1010.93
2016-07-24T03:10:44.576Z,1010.94
2016-07-24T03:11:44.559Z,1010.93
2016-07-24T03:12:44.549Z,1010.96
2016-07-24T03:13:44.541Z,1010.92
2016-07-24T03:14:44.529Z,1010.95
2016-07-24T03:15:44.522Z,1010.92
2016-07-24T03:16:44.511Z,1010.95
2016-07-24T03:17:44.505Z,1010.93
2016-07-24T03:18:44.492Z,1010.92
2016-07-24T03:19:44.485Z,1010.91
2016-07-24T03:20:44.475Z,1010.89
2016-07-24T03:21:44.465Z,1010.93
2016-07-24T03:22:44.454Z,1010.9
2016-07-24T03:23:44.444Z,1010.89
2016-07-24T03:24:44.436Z,1010.91
2016-07-24T03:25:44.425Z,1010.9
2016-07-24T03:26:44.420Z,1010.91
2016-07-24T03:27:44.407Z,1010.94
2016-07-24T03:28:44.398Z,1010.94
2016-07-24T03:29:44.385Z,1010.93
2016-07-24T03:30:44.378Z,1010.9
2016-07-24T03:31:44.368Z,1010.91
2016-07-24T03:32:44.358Z,1010.87
2016-07-24T03:33:44.347Z,1010.85
2016-07-24T03:34:44.338Z,1010.85
2016-07-24T03:35:44.330Z,1010.89
2016-07-24T03:36:44.318Z,1010.84
2016-07-24T03:37:44.311Z,1010.9
2016-07-24T03:38:44.299Z,1010.89
2016-07-24T03:39:44.290Z,1010.88
2016-07-24T03:40:44.281Z,1010.86
2016-07-24T03:41:44.270Z,1010.88
2016-07-24T03:42:44.259Z,1010.87
2016-07-24T03:43:44.251Z,1010.9
2016-07-24T03:44:44.242Z,1010.9
2016-07-24T03:45:44.232Z,1010.92
2016-07-24T03:46:44.221Z,1010.92
2016-07-24T03:47:44.209Z,1010.92
2016-07-24T03:48:44.251Z,1010.94
2016-07-24T03:49:44.191Z,1010.93
2016-07-24T03:50:44.184Z,1010.92
2016-07-24T03:51:44.172Z,1010.94
2016-07-24T03:52:44.162Z,1010.94
2016-07-24T03:53:44.154Z,1010.92
2016-07-24T03:54:44.146Z,1010.95
2016-07-24T03:55:44.136Z,1010.92
2016-07-24T03:56:44.123Z,1010.91
2016-07-24T03:57:44.115Z,1010.93
2016-07-24T03:58:44.107Z,1010.9
2016-07-24T03:59:44.094Z,1010.9
2016-07-24T04:00:44.087Z,1010.9
2016-07-24T04:01:44.075Z,1010.91
2016-07-24T04:02:44.065Z,1010.93
2016-07-24T04:03:44.057Z,1010.92
2016-07-24T04:04:44.046Z,1010.96
2016-07-24T04:05:44.037Z,1010.95
2016-07-24T04:06:44.027Z,1010.93
2016-07-24T04:07:44.016Z,1010.95
2016-07-24T04:08:44.010Z,1010.94
2016-07-24T04:09:43.997Z,1010.99
2016-07-24T04:10:43.987Z,1011
2016-07-24T04:11:43.977Z,1010.99
2016-07-24T04:12:43.968Z,1011
2016-07-24T04:13:43.957Z,1010.97
2016-07-24T04:14:43.948Z,1010.99
2016-07-24T04:15:43.938Z,1010.99
2016-07-24T04:16:43.931Z,1011
2016-07-24T04:17:43.920Z,1010.99
2016-07-24T04:18:43.910Z,1010.99
2016-07-24T04:19:43.900Z,1010.97
2016-07-24T04:20:43.890Z,1010.97
2016-07-24T04:21:43.879Z,1010.96
2016-07-24T04:22:43.871Z,1010.99
2016-07-24T04:23:43.861Z,1011
2016-07-24T04:24:43.851Z,1011.03
2016-07-24T04:25:43.842Z,1011.03
2016-07-24T04:26:43.835Z,1011.05
2016-07-24T04:27:43.822Z,1011.04
2016-07-24T04:28:43.812Z,1011
2016-07-24T04:29:43.805Z,1010.95
2016-07-24T04:30:43.800Z,1011.02
2016-07-24T04:31:43.784Z,1010.97
2016-07-24T04:32:43.772Z,1010.95
2016-07-24T04:33:43.764Z,1010.98
2016-07-24T04:34:43.758Z,1011
2016-07-24T04:35:43.744Z,1010.98
2016-07-24T04:36:43.737Z,1010.98
2016-07-24T04:37:43.727Z,1010.97
2016-07-24T04:38:43.718Z,1010.98
2016-07-24T04:39:43.710Z,1010.98
2016-07-24T04:40:43.702Z,1010.96
2016-07-24T04:41:43.689Z,1010.94
2016-07-24T04:42:43.879Z,1010.98
2016-07-24T04:43:43.671Z,1010.96
2016-07-24T04:44:43.659Z,1010.95
2016-07-24T04:45:43.650Z,1010.96
2016-07-24T04:46:43.641Z,1010.95
2016-07-24T04:47:43.632Z,1010.95
2016-07-24T04:48:43.621Z,1010.97
2016-07-24T04:49:43.611Z,1010.9
2016-07-24T04:50:43.605Z,1010.91
2016-07-24T04:51:43.594Z,1010.95
2016-07-24T04:52:43.793Z,1010.9
2016-07-24T04:53:43.574Z,1010.9
2016-07-24T04:54:43.564Z,1010.94
2016-07-24T04:55:43.556Z,1010.92
2016-07-24T04:56:43.546Z,1010.93
2016-07-24T04:57:43.536Z,1010.92
2016-07-24T04:58:43.527Z,1010.95
2016-07-24T04:59:43.519Z,1010.94
2016-07-24T05:00:43.508Z,1010.94
2016-07-24T05:01:43.500Z,1010.94
2016-07-24T05:02:43.489Z,1010.96
2016-07-24T05:03:43.482Z,1010.99
2016-07-24T05:04:43.470Z,1010.95
2016-07-24T05:05:43.461Z,1010.99
2016-07-24T05:06:43.452Z,1010.99
2016-07-24T05:07:43.444Z,1011.01
2016-07-24T05:08:43.433Z,1010.99
2016-07-24T05:09:43.422Z,1011.01
2016-07-24T05:10:43.415Z,1010.98
2016-07-24T05:11:43.404Z,1011.02
2016-07-24T05:12:43.396Z,1011.01
2016-07-24T05:13:43.389Z,1011.02
2016-07-24T05:14:43.379Z,1011.02
2016-07-24T05:15:43.369Z,1011.08
2016-07-24T05:16:43.358Z,1011.06
2016-07-24T05:17:43.349Z,1011.06
2016-07-24T05:18:43.340Z,1011.05
2016-07-24T05:19:43.330Z,1011.08
2016-07-24T05:20:43.321Z,1011.13
2016-07-24T05:21:43.312Z,1011.15
2016-07-24T05:22:43.302Z,1011.14
2016-07-24T05:23:43.294Z,1011.17
2016-07-24T05:24:43.286Z,1011.16
2016-07-24T05:25:43.278Z,1011.16
2016-07-24T05:26:43.264Z,1011.19
2016-07-24T05:27:43.257Z,1011.21
2016-07-24T05:28:43.248Z,1011.22
2016-07-24T05:29:43.239Z,1011.19
2016-07-24T05:30:43.228Z,1011.19
2016-07-24T05:31:43.222Z,1011.19
2016-07-24T05:32:43.211Z,1011.21
2016-07-24T05:33:43.213Z,1011.2
2016-07-24T05:34:43.195Z,1011.2
2016-07-24T05:35:43.183Z,1011.18
2016-07-24T05:36:43.175Z,1011.17
2016-07-24T05:37:43.168Z,1011.15
2016-07-24T05:38:43.157Z,1011.15
2016-07-24T05:39:43.149Z,1011.16
2016-07-24T05:40:43.139Z,1011.15
2016-07-24T05:41:43.128Z,1011.14
2016-07-24T05:42:43.121Z,1011.14
2016-07-24T05:43:43.111Z,1011.13
2016-07-24T05:44:43.101Z,1011.18
2016-07-24T05:45:43.094Z,1011.16
2016-07-24T05:46:43.084Z,1011.18
2016-07-24T05:47:43.076Z,1011.18
2016-07-24T05:48:43.065Z,1011.17
2016-07-24T05:49:43.057Z,1011.16
2016-07-24T05:50:43.048Z,1011.18
2016-07-24T05:51:43.040Z,1011.2
2016-07-24T05:52:43.030Z,1011.23
2016-07-24T05:53:43.021Z,1011.24
2016-07-24T05:54:43.013Z,1011.21
2016-07-24T05:55:43.005Z,1011.23
2016-07-24T05:56:42.996Z,1011.21
2016-07-24T05:57:42.986Z,1011.24
2016-07-24T05:58:42.978Z,1011.25
2016-07-24T05:59:42.969Z,1011.25
2016-07-24T06:00:42.959Z,1011.28
2016-07-24T06:01:42.953Z,1011.29
2016-07-24T06:02:42.944Z,1011.24
2016-07-24T06:03:42.941Z,1011.25
2016-07-24T06:04:42.924Z,1011.23
2016-07-24T06:05:42.916Z,1011.21
2016-07-24T06:06:42.907Z,1011.21
2016-07-24T06:07:42.900Z,1011.22
2016-07-24T06:08:42.890Z,1011.23
2016-07-24T06:09:42.882Z,1011.24
2016-07-24T06:10:42.873Z,1011.21
2016-07-24T06:11:42.864Z,1011.2
2016-07-24T06:12:42.856Z,1011.24
2016-07-24T06:13:42.849Z,1011.23
2016-07-24T06:14:42.839Z,1011.23
2016-07-24T06:15:42.831Z,1011.18
2016-07-24T06:16:42.824Z,1011.19
2016-07-24T06:17:42.823Z,1011.13
2016-07-24T06:18:42.808Z,1011.15
2016-07-24T06:19:42.797Z,1011.12
2016-07-24T06:20:42.788Z,1011.17
2016-07-24T06:21:42.779Z,1011.15
2016-07-24T06:22:42.772Z,1011.15
2016-07-24T06:23:42.766Z,1011.18
2016-07-24T06:24:42.756Z,1011.16
2016-07-24T06:25:42.751Z,1011.16
2016-07-24T06:26:42.743Z,1011.17
2016-07-24T06:27:42.733Z,1011.18
2016-07-24T06:28:42.724Z,1011.16
2016-07-24T06:29:42.715Z,1011.16
2016-07-24T06:30:42.708Z,1011.16
2016-07-24T06:31:42.700Z,1011.19
2016-07-24T06:32:42.690Z,1011.22
2016-07-24T06:33:42.683Z,1011.2
2016-07-24T06:34:42.678Z,1011.22
2016-07-24T06:35:42.666Z,1011.21
2016-07-24T06:36:42.660Z,1011.21
2016-07-24T06:37:42.650Z,1011.25
2016-07-24T06:38:42.657Z,1011.18
2016-07-24T06:39:42.635Z,1011.18
2016-07-24T06:40:42.627Z,1011.18
2016-07-24T06:41:42.619Z,1011.19
2016-07-24T06:42:42.812Z,1011.15
2016-07-24T06:43:42.602Z,1011.16
2016-07-24T06:44:42.595Z,1011.14
2016-07-24T06:45:42.588Z,1011.19
2016-07-24T06:46:42.576Z,1011.15
2016-07-24T06:47:42.570Z,1011.21
2016-07-24T06:48:42.563Z,1011.15
2016-07-24T06:49:42.554Z,1011.19
2016-07-24T06:50:42.544Z,1011.19
2016-07-24T06:51:42.538Z,1011.17
2016-07-24T06:52:42.530Z,1011.17
2016-07-24T06:53:42.523Z,1011.19
2016-07-24T06:54:42.513Z,1011.18
2016-07-24T06:55:42.508Z,1011.21
2016-07-24T06:56:42.496Z,1011.19
2016-07-24T06:57:42.489Z,1011.21
2016-07-24T06:58:42.483Z,1011.22
2016-07-24T06:59:42.476Z,1011.23
2016-07-24T07:00:42.485Z,1011.23
2016-07-24T07:01:42.460Z,1011.2
2016-07-24T07:02:42.449Z,1011.26
2016-07-24T07:03:42.443Z,1011.27
2016-07-24T07:04:42.436Z,1011.26
2016-07-24T07:05:42.427Z,1011.25
2016-07-24T07:06:42.420Z,1011.26
2016-07-24T07:07:42.414Z,1011.26
2016-07-24T07:08:42.403Z,1011.27
2016-07-24T07:09:42.396Z,1011.26
2016-07-24T07:10:42.388Z,1011.26
2016-07-24T07:11:42.382Z,1011.31
2016-07-24T07:12:42.373Z,1011.31
2016-07-24T07:13:42.368Z,1011.28
2016-07-24T07:14:42.359Z,1011.31
2016-07-24T07:15:42.348Z,1011.32
2016-07-24T07:16:42.341Z,1011.33
2016-07-24T07:17:42.336Z,1011.3
2016-07-24T07:18:42.329Z,1011.33
2016-07-24T07:19:42.319Z,1011.31
2016-07-24T07:20:42.311Z,1011.33
2016-07-24T07:21:42.305Z,1011.39
2016-07-24T07:22:42.294Z,1011.35
2016-07-24T07:23:42.289Z,1011.39
2016-07-24T07:24:42.279Z,1011.41
2016-07-24T07:25:42.323Z,1011.41
2016-07-24T07:26:42.266Z,1011.42
2016-07-24T07:27:42.257Z,1011.43
2016-07-24T07:28:42.248Z,1011.47
2016-07-24T07:29:42.244Z,1011.43
2016-07-24T07:30:42.232Z,1011.47
2016-07-24T07:31:42.229Z,1011.46
2016-07-24T07:32:42.220Z,1011.47
2016-07-24T07:33:42.212Z,1011.49
2016-07-24T07:34:42.234Z,1011.48
2016-07-24T07:35:42.197Z,1011.51
2016-07-24T07:36:42.189Z,1011.48
2016-07-24T07:37:42.187Z,1011.48
2016-07-24T07:38:42.172Z,1011.51
2016-07-24T07:39:42.210Z,1011.48
2016-07-24T07:40:42.192Z,1011.45
2016-07-24T07:41:42.218Z,1011.48
2016-07-24T07:42:42.163Z,1011.5
2016-07-24T07:43:42.146Z,1011.55
2016-07-24T07:44:42.169Z,1011.54
2016-07-24T07:45:42.154Z,1011.54
2016-07-24T07:46:42.165Z,1011.59
2016-07-24T07:47:42.119Z,1011.54
2016-07-24T07:48:42.114Z,1011.51
2016-07-24T07:49:42.109Z,1011.53
2016-07-24T07:50:42.104Z,1011.55
2016-07-24T07:51:42.102Z,1011.54
2016-07-24T07:52:42.096Z,1011.55
2016-07-24T07:53:42.087Z,1011.55
2016-07-24T07:54:42.085Z,1011.58
2016-07-24T07:55:42.079Z,1011.57
2016-07-24T07:56:42.075Z,1011.52
2016-07-24T07:57:42.069Z,1011.53
2016-07-24T07:58:42.064Z,1011.51
2016-07-24T07:59:42.058Z,1011.51
2016-07-24T08:00:42.052Z,1011.59
2016-07-24T08:01:42.048Z,1011.57
2016-07-24T08:02:42.043Z,1011.52
2016-07-24T08:03:42.039Z,1011.51
2016-07-24T08:04:42.032Z,1011.52
2016-07-24T08:05:42.029Z,1011.5
2016-07-24T08:06:42.023Z,1011.51
2016-07-24T08:07:42.015Z,1011.45
2016-07-24T08:08:42.012Z,1011.48
2016-07-24T08:09:42.005Z,1011.44
2016-07-24T08:10:41.999Z,1011.5
2016-07-24T08:11:41.994Z,1011.49
2016-07-24T08:12:41.991Z,1011.49
2016-07-24T08:13:41.986Z,1011.5
2016-07-24T08:14:41.979Z,1011.47
2016-07-24T08:15:41.974Z,1011.47
2016-07-24T08:16:41.971Z,1011.5
2016-07-24T08:17:41.965Z,1011.49
2016-07-24T08:18:41.958Z,1011.49
2016-07-24T08:19:41.959Z,1011.45
2016-07-24T08:20:41.951Z,1011.52
2016-07-24T08:21:41.945Z,1011.51
2016-07-24T08:22:41.943Z,1011.54
2016-07-24T08:23:41.939Z,1011.55
2016-07-24T08:24:41.935Z,1011.54
2016-07-24T08:25:41.930Z,1011.49
2016-07-24T08:26:41.951Z,1011.5
2016-07-24T08:27:41.923Z,1011.47
2016-07-24T08:28:41.922Z,1011.5
2016-07-24T08:29:41.916Z,1011.49
2016-07-24T08:30:41.915Z,1011.49
2016-07-24T08:31:41.912Z,1011.52
2016-07-24T08:32:41.911Z,1011.56
2016-07-24T08:33:41.910Z,1011.5
2016-07-24T08:34:41.908Z,1011.47
2016-07-24T08:35:41.908Z,1011.47
2016-07-24T08:36:41.904Z,1011.47
2016-07-24T08:37:41.909Z,1011.52
2016-07-24T08:38:41.904Z,1011.45
2016-07-24T08:39:41.904Z,1011.48
2016-07-24T08:40:41.904Z,1011.53
2016-07-24T08:41:41.905Z,1011.52
2016-07-24T08:42:42.112Z,1011.54
2016-07-24T08:43:41.914Z,1011.47
2016-07-24T08:44:41.908Z,1011.51
2016-07-24T08:45:41.905Z,1011.51
2016-07-24T08:46:41.906Z,1011.5
2016-07-24T08:47:41.900Z,1011.49
2016-07-24T08:48:41.903Z,1011.53
2016-07-24T08:49:41.908Z,1011.5
2016-07-24T08:50:41.902Z,1011.55
2016-07-24T08:51:41.900Z,1011.48
2016-07-24T08:52:41.901Z,1011.45
2016-07-24T08:53:41.913Z,1011.46
2016-07-24T08:54:41.906Z,1011.48
2016-07-24T08:55:41.911Z,1011.47
2016-07-24T08:56:41.896Z,1011.48
2016-07-24T08:57:41.894Z,1011.46
2016-07-24T08:58:41.891Z,1011.47
2016-07-24T08:59:41.887Z,1011.45
2016-07-24T09:00:41.885Z,1011.48
2016-07-24T09:01:41.885Z,1011.44
2016-07-24T09:02:41.883Z,1011.46
2016-07-24T09:03:41.879Z,1011.44
2016-07-24T09:04:41.881Z,1011.5
2016-07-24T09:05:41.876Z,1011.46
2016-07-24T09:06:41.871Z,1011.48
2016-07-24T09:07:41.869Z,1011.46
2016-07-24T09:08:41.866Z,1011.51
2016-07-24T09:09:41.861Z,1011.5
2016-07-24T09:10:41.862Z,1011.46
2016-07-24T09:11:41.857Z,1011.42
2016-07-24T09:12:41.854Z,1011.43
2016-07-24T09:13:41.850Z,1011.47
2016-07-24T09:14:41.846Z,1011.49
2016-07-24T09:15:41.842Z,1011.49
2016-07-24T09:16:41.841Z,1011.46
2016-07-24T09:17:41.835Z,1011.47
2016-07-24T09:18:41.833Z,1011.48
2016-07-24T09:19:41.829Z,1011.45
2016-07-24T09:20:41.823Z,1011.43
2016-07-24T09:21:41.824Z,1011.46
2016-07-24T09:22:41.818Z,1011.49
2016-07-24T09:23:41.813Z,1011.51
2016-07-24T09:24:41.809Z,1011.62
2016-07-24T09:25:41.804Z,1011.56
2016-07-24T09:26:41.804Z,1011.47
2016-07-24T09:27:41.798Z,1011.48
2016-07-24T09:28:41.795Z,1011.5
2016-07-24T09:29:41.791Z,1011.49
2016-07-24T09:30:41.785Z,1011.5
2016-07-24T09:31:41.786Z,1011.49
2016-07-24T09:32:41.780Z,1011.46
2016-07-24T09:33:41.775Z,1011.48
2016-07-24T09:34:41.771Z,1011.53
2016-07-24T09:35:41.768Z,1011.5
2016-07-24T09:36:41.767Z,1011.56
2016-07-24T09:37:41.763Z,1011.49
2016-07-24T09:38:41.758Z,1011.47
2016-07-24T09:39:41.757Z,1011.47
2016-07-24T09:40:41.752Z,1011.47
2016-07-24T09:41:41.752Z,1011.45
2016-07-24T09:42:41.745Z,1011.51
2016-07-24T09:43:41.747Z,1011.46
2016-07-24T09:44:41.744Z,1011.53
2016-07-24T09:45:41.738Z,1011.47
2016-07-24T09:46:41.738Z,1011.46
2016-07-24T09:47:41.733Z,1011.49
2016-07-24T09:48:41.733Z,1011.46
2016-07-24T09:49:41.726Z,1011.51
2016-07-24T09:50:41.724Z,1011.47
2016-07-24T09:51:41.721Z,1011.49
2016-07-24T09:52:41.723Z,1011.52
2016-07-24T09:53:41.716Z,1011.51
2016-07-24T09:54:41.714Z,1011.48
2016-07-24T09:55:41.712Z,1011.49
2016-07-24T09:56:41.711Z,1011.5
2016-07-24T09:57:41.707Z,1011.5
2016-07-24T09:58:41.706Z,1011.45
2016-07-24T09:59:41.705Z,1011.47
2016-07-24T10:00:41.699Z,1011.41
2016-07-24T10:01:41.698Z,1011.38
2016-07-24T10:02:41.695Z,1011.42
2016-07-24T10:03:41.692Z,1011.44
2016-07-24T10:04:41.691Z,1011.46
2016-07-24T10:05:41.686Z,1011.47
2016-07-24T10:06:41.686Z,1011.42
2016-07-24T10:07:41.682Z,1011.46
2016-07-24T10:08:41.681Z,1011.42
2016-07-24T10:09:41.676Z,1011.4
2016-07-24T10:10:41.676Z,1011.44
2016-07-24T10:11:41.674Z,1011.43
2016-07-24T10:12:41.669Z,1011.43
2016-07-24T10:13:41.667Z,1011.42
2016-07-24T10:14:41.666Z,1011.39
2016-07-24T10:15:41.662Z,1011.42
2016-07-24T10:16:41.660Z,1011.39
2016-07-24T10:17:41.657Z,1011.38
2016-07-24T10:18:41.655Z,1011.38
2016-07-24T10:19:41.652Z,1011.39
2016-07-24T10:20:41.651Z,1011.38
2016-07-24T10:21:41.647Z,1011.41
2016-07-24T10:22:41.646Z,1011.44
2016-07-24T10:23:41.641Z,1011.4
2016-07-24T10:24:41.642Z,1011.38
2016-07-24T10:25:41.636Z,1011.41
2016-07-24T10:26:41.633Z,1011.43
2016-07-24T10:27:41.631Z,1011.39
2016-07-24T10:28:41.628Z,1011.37
2016-07-24T10:29:41.626Z,1011.37
2016-07-24T10:30:41.621Z,1011.36
2016-07-24T10:31:41.618Z,1011.39
2016-07-24T10:32:41.616Z,1011.36
2016-07-24T10:33:41.612Z,1011.35
2016-07-24T10:34:41.609Z,1011.36
2016-07-24T10:35:41.605Z,1011.35
2016-07-24T10:36:41.604Z,1011.36
2016-07-24T10:37:41.605Z,1011.38
2016-07-24T10:38:41.599Z,1011.37
2016-07-24T10:39:41.593Z,1011.39
2016-07-24T10:40:41.587Z,1011.39
2016-07-24T10:41:41.585Z,1011.4
2016-07-24T10:42:41.583Z,1011.41
2016-07-24T10:43:41.580Z,1011.42
2016-07-24T10:44:41.574Z,1011.43
2016-07-24T10:45:41.572Z,1011.46
2016-07-24T10:46:41.567Z,1011.41
2016-07-24T10:47:41.565Z,1011.39
2016-07-24T10:48:41.560Z,1011.46
2016-07-24T10:49:41.560Z,1011.45
2016-07-24T10:50:41.554Z,1011.45
2016-07-24T10:51:41.550Z,1011.41
2016-07-24T10:52:41.546Z,1011.41
2016-07-24T10:53:41.543Z,1011.43
2016-07-24T10:54:41.547Z,1011.45
2016-07-24T10:55:41.535Z,1011.42
2016-07-24T10:56:41.531Z,1011.39
2016-07-24T10:57:41.528Z,1011.41
2016-07-24T10:58:41.523Z,1011.41
2016-07-24T10:59:41.520Z,1011.38
2016-07-24T11:00:41.517Z,1011.34
2016-07-24T11:01:41.512Z,1011.37
2016-07-24T11:02:41.508Z,1011.37
2016-07-24T11:03:41.506Z,1011.34
2016-07-24T11:04:41.500Z,1011.36
2016-07-24T11:05:41.499Z,1011.35
2016-07-24T11:06:41.496Z,1011.34
2016-07-24T11:07:41.487Z,1011.37
2016-07-24T11:08:41.494Z,1011.37
2016-07-24T11:09:41.484Z,1011.35
2016-07-24T11:10:41.479Z,1011.33
2016-07-24T11:11:41.476Z,1011.37
2016-07-24T11:12:41.472Z,1011.37
2016-07-24T11:13:41.468Z,1011.4
2016-07-24T11:14:41.466Z,1011.39
2016-07-24T11:15:41.465Z,1011.37
2016-07-24T11:16:41.464Z,1011.38
2016-07-24T11:17:41.458Z,1011.34
2016-07-24T11:18:41.458Z,1011.37
2016-07-24T11:19:41.453Z,1011.37
2016-07-24T11:20:41.453Z,1011.35
2016-07-24T11:21:41.447Z,1011.39
2016-07-24T11:22:41.446Z,1011.39
2016-07-24T11:23:41.443Z,1011.38
2016-07-24T11:24:41.441Z,1011.35
2016-07-24T11:25:41.440Z,1011.32
2016-07-24T11:26:41.448Z,1011.37
2016-07-24T11:27:41.435Z,1011.4
2016-07-24T11:28:41.429Z,1011.38
2016-07-24T11:29:41.426Z,1011.36
2016-07-24T11:30:41.427Z,1011.34
2016-07-24T11:31:41.444Z,1011.36
2016-07-24T11:32:41.417Z,1011.35
2016-07-24T11:33:41.425Z,1011.33
2016-07-24T11:34:41.412Z,1011.37
2016-07-24T11:35:41.409Z,1011.39
2016-07-24T11:36:41.406Z,1011.34
2016-07-24T11:37:41.403Z,1011.34
2016-07-24T11:38:41.411Z,1011.36
2016-07-24T11:39:41.395Z,1011.38
2016-07-24T11:40:41.390Z,1011.38
2016-07-24T11:41:41.389Z,1011.37
2016-07-24T11:42:41.384Z,1011.38
2016-07-24T11:43:41.390Z,1011.34
2016-07-24T11:44:41.377Z,1011.33
2016-07-24T11:45:41.375Z,1011.32
2016-07-24T11:46:41.373Z,1011.34
2016-07-24T11:47:41.379Z,1011.32
2016-07-24T11:48:41.364Z,1011.32
2016-07-24T11:49:41.377Z,1011.31
2016-07-24T11:50:41.359Z,1011.33
2016-07-24T11:51:41.354Z,1011.34
2016-07-24T11:52:41.352Z,1011.33
2016-07-24T11:53:41.360Z,1011.3
2016-07-24T11:54:41.344Z,1011.31
2016-07-24T11:55:41.342Z,1011.3
2016-07-24T11:56:41.339Z,1011.28
2016-07-24T11:57:41.334Z,1011.28
2016-07-24T11:58:41.330Z,1011.27
2016-07-24T11:59:41.330Z,1011.23
2016-07-24T12:00:41.324Z,1011.28
2016-07-24T12:01:41.320Z,1011.27
2016-07-24T12:02:41.316Z,1011.3
2016-07-24T12:03:41.314Z,1011.33
2016-07-24T12:04:41.313Z,1011.29
2016-07-24T12:05:41.308Z,1011.25
2016-07-24T12:06:41.305Z,1011.28
2016-07-24T12:07:41.302Z,1011.25
2016-07-24T12:08:41.297Z,1011.28